sensor_id;sensor_type;location;lat;lon;timestamp;pressure;altitude;pressure_sealevel;temperature;humidity
66486;BME280;53303;47.476;8.084;2023-01-27T00:02:14;95220.06;;;18.66;30.96
66486;BME280;53303;47.476;8.084;2023-01-27T00:04:44;95230.13;;;18.75;31.29
66486;BME280;53303;47.476;8.084;2023-01-27T00:07:10;95218.81;;;18.67;31.58
66486;BME280;53303;47.476;8.084;2023-01-27T00:09:35;95222.31;;;18.73;31.53
66486;BME280;53303;47.476;8.084;2023-01-27T00:12:03;95202.75;;;18.60;31.33
66486;BME280;53303;47.476;8.084;2023-01-27T00:14:49;95229.84;;;18.78;31.27
66486;BME280;53303;47.476;8.084;2023-01-27T00:17:15;95219.31;;;18.71;31.28
66486;BME280;53303;47.476;8.084;2023-01-27T00:19:40;95202.00;;;18.59;31.59
66486;BME280;53303;47.476;8.084;2023-01-27T00:22:08;95209.00;;;18.60;31.49
66486;BME280;53303;47.476;8.084;2023-01-27T00:24:55;95202.25;;;18.61;31.40
66486;BME280;53303;47.476;8.084;2023-01-27T00:27:22;95200.47;;;18.64;31.78
66486;BME280;53303;47.476;8.084;2023-01-27T00:29:51;95213.03;;;18.71;31.36
66486;BME280;53303;47.476;8.084;2023-01-27T00:32:20;95216.78;;;18.73;31.36
66486;BME280;53303;47.476;8.084;2023-01-27T00:35:04;95201.75;;;18.63;31.33
66486;BME280;53303;47.476;8.084;2023-01-27T00:37:32;95205.25;;;18.69;31.45
66486;BME280;53303;47.476;8.084;2023-01-27T00:39:59;95215.78;;;18.76;31.42
66486;BME280;53303;47.476;8.084;2023-01-27T00:42:25;95201.75;;;18.69;31.44
66486;BME280;53303;47.476;8.084;2023-01-27T00:44:53;95206.75;;;18.76;31.37
66486;BME280;53303;47.476;8.084;2023-01-27T00:47:37;95186.41;;;18.56;31.48
66486;BME280;53303;47.476;8.084;2023-01-27T00:50:05;95190.94;;;18.71;31.39
66486;BME280;53303;47.476;8.084;2023-01-27T00:52:30;95194.69;;;18.68;31.29
66486;BME280;53303;47.476;8.084;2023-01-27T00:54:56;95194.44;;;18.77;31.22
66486;BME280;53303;47.476;8.084;2023-01-27T00:57:23;95193.19;;;18.72;31.31
66486;BME280;53303;47.476;8.084;2023-01-27T00:59:49;95206.75;;;18.76;31.41
66486;BME280;53303;47.476;8.084;2023-01-27T01:02:15;95183.16;;;18.63;31.46
66486;BME280;53303;47.476;8.084;2023-01-27T01:04:43;95200.97;;;18.74;31.35
66486;BME280;53303;47.476;8.084;2023-01-27T01:07:08;95186.16;;;18.65;31.25
66486;BME280;53303;47.476;8.084;2023-01-27T01:09:33;95204.75;;;18.71;31.46
66486;BME280;53303;47.476;8.084;2023-01-27T01:12:01;95197.47;;;18.68;31.32
66486;BME280;53303;47.476;8.084;2023-01-27T01:14:29;95187.44;;;18.64;31.28
66486;BME280;53303;47.476;8.084;2023-01-27T01:16:57;95200.47;;;18.70;31.51
66486;BME280;53303;47.476;8.084;2023-01-27T01:19:22;95189.66;;;18.66;31.21
66486;BME280;53303;47.476;8.084;2023-01-27T01:21:48;95194.94;;;18.70;31.62
66486;BME280;53303;47.476;8.084;2023-01-27T01:24:14;95194.94;;;18.70;31.31
66486;BME280;53303;47.476;8.084;2023-01-27T01:26:40;95175.38;;;18.56;31.29
66486;BME280;53303;47.476;8.084;2023-01-27T01:29:05;95172.84;;;18.53;31.58
66486;BME280;53303;47.476;8.084;2023-01-27T01:31:35;95187.69;;;18.67;31.30
66486;BME280;53303;47.476;8.084;2023-01-27T01:34:03;95190.69;;;18.69;31.20
66486;BME280;53303;47.476;8.084;2023-01-27T01:36:28;95195.19;;;18.77;31.34
66486;BME280;53303;47.476;8.084;2023-01-27T01:38:55;95195.69;;;18.76;31.22
66486;BME280;53303;47.476;8.084;2023-01-27T01:41:21;95199.47;;;18.78;31.46
66486;BME280;53303;47.476;8.084;2023-01-27T01:43:47;95193.19;;;18.78;31.39
66486;BME280;53303;47.476;8.084;2023-01-27T01:46:13;95200.22;;;18.79;31.20
66486;BME280;53303;47.476;8.084;2023-01-27T01:48:58;95178.88;;;18.62;31.26
66486;BME280;53303;47.476;8.084;2023-01-27T01:51:38;95175.59;;;18.64;31.41
66486;BME280;53303;47.476;8.084;2023-01-27T01:56:46;95173.09;;;18.66;31.15
66486;BME280;53303;47.476;8.084;2023-01-27T01:59:38;95183.13;;;18.69;31.17
66486;BME280;53303;47.476;8.084;2023-01-27T02:02:10;95191.66;;;18.77;31.35
66486;BME280;53303;47.476;8.084;2023-01-27T02:04:46;95178.09;;;18.73;31.36
66486;BME280;53303;47.476;8.084;2023-01-27T02:07:21;95178.88;;;18.74;31.28
66486;BME280;53303;47.476;8.084;2023-01-27T02:09:49;95172.31;;;18.77;31.24
66486;BME280;53303;47.476;8.084;2023-01-27T02:12:14;95177.84;;;18.77;31.33
66486;BME280;53303;47.476;8.084;2023-01-27T02:14:45;95161.78;;;18.70;31.42
66486;BME280;53303;47.476;8.084;2023-01-27T02:17:13;95158.53;;;18.65;31.25
66486;BME280;53303;47.476;8.084;2023-01-27T02:22:24;95173.59;;;18.76;31.37
66486;BME280;53303;47.476;8.084;2023-01-27T02:25:03;95177.09;;;18.76;31.36
66486;BME280;53303;47.476;8.084;2023-01-27T02:27:31;95168.56;;;18.74;31.43
66486;BME280;53303;47.476;8.084;2023-01-27T02:30:01;95172.31;;;18.77;31.38
66486;BME280;53303;47.476;8.084;2023-01-27T02:32:27;95170.31;;;18.77;31.28
66486;BME280;53303;47.476;8.084;2023-01-27T02:34:54;95176.59;;;18.78;31.25
66486;BME280;53303;47.476;8.084;2023-01-27T02:37:23;95172.59;;;18.79;31.28
66486;BME280;53303;47.476;8.084;2023-01-27T02:39:54;95164.78;;;18.77;31.23
66486;BME280;53303;47.476;8.084;2023-01-27T02:42:24;95165.53;;;18.78;31.53
66486;BME280;53303;47.476;8.084;2023-01-27T02:44:49;95156.00;;;18.73;31.11
66486;BME280;53303;47.476;8.084;2023-01-27T02:47:17;95159.28;;;18.77;31.23
66486;BME280;53303;47.476;8.084;2023-01-27T02:49:43;95149.72;;;18.73;31.34
66486;BME280;53303;47.476;8.084;2023-01-27T02:52:08;95138.94;;;18.63;31.41
66486;BME280;53303;47.476;8.084;2023-01-27T02:54:38;95160.00;;;18.78;31.49
66486;BME280;53303;47.476;8.084;2023-01-27T02:57:04;95153.22;;;18.73;31.41
66486;BME280;53303;47.476;8.084;2023-01-27T02:59:29;95147.69;;;18.73;31.14
66486;BME280;53303;47.476;8.084;2023-01-27T03:01:55;95152.97;;;18.77;31.35
66486;BME280;53303;47.476;8.084;2023-01-27T03:04:20;95146.19;;;18.78;31.33
66486;BME280;53303;47.476;8.084;2023-01-27T03:06:45;95151.72;;;18.78;31.25
66486;BME280;53303;47.476;8.084;2023-01-27T03:09:13;95139.69;;;18.75;31.41
66486;BME280;53303;47.476;8.084;2023-01-27T03:11:43;95145.44;;;18.77;31.36
66486;BME280;53303;47.476;8.084;2023-01-27T03:14:30;95143.19;;;18.76;31.20
66486;BME280;53303;47.476;8.084;2023-01-27T03:17:17;95142.97;;;18.68;31.40
66486;BME280;53303;47.476;8.084;2023-01-27T03:20:01;95148.72;;;18.70;31.21
66486;BME280;53303;47.476;8.084;2023-01-27T03:22:28;95149.72;;;18.73;31.35
66486;BME280;53303;47.476;8.084;2023-01-27T03:24:56;95149.22;;;18.69;31.21
66486;BME280;53303;47.476;8.084;2023-01-27T03:27:24;95147.44;;;18.77;31.16
66486;BME280;53303;47.476;8.084;2023-01-27T03:29:53;95156.75;;;18.74;31.31
66486;BME280;53303;47.476;8.084;2023-01-27T03:32:26;95162.03;;;18.77;31.42
66486;BME280;53303;47.476;8.084;2023-01-27T03:34:52;95141.69;;;18.63;31.09
66486;BME280;53303;47.476;8.084;2023-01-27T03:37:19;95145.44;;;18.66;31.27
66486;BME280;53303;47.476;8.084;2023-01-27T03:40:04;95151.50;;;18.70;31.19
66486;BME280;53303;47.476;8.084;2023-01-27T03:42:51;95161.53;;;18.62;31.60
66486;BME280;53303;47.476;8.084;2023-01-27T03:45:37;95122.63;;;18.43;31.45
66486;BME280;53303;47.476;8.084;2023-01-27T03:48:21;95142.19;;;18.62;31.38
66486;BME280;53303;47.476;8.084;2023-01-27T03:50:47;95143.72;;;18.63;31.54
66486;BME280;53303;47.476;8.084;2023-01-27T03:53:22;95155.50;;;18.75;31.18
66486;BME280;53303;47.476;8.084;2023-01-27T03:55:48;95137.69;;;18.64;31.18
66486;BME280;53303;47.476;8.084;2023-01-27T03:58:22;95148.97;;;18.72;30.98
66486;BME280;53303;47.476;8.084;2023-01-27T04:00:49;95150.47;;;18.62;31.39
66486;BME280;53303;47.476;8.084;2023-01-27T04:03:18;95143.69;;;18.69;31.44
66486;BME280;53303;47.476;8.084;2023-01-27T04:06:04;95150.22;;;18.71;31.22
66486;BME280;53303;47.476;8.084;2023-01-27T04:08:48;95158.75;;;18.73;31.14
66486;BME280;53303;47.476;8.084;2023-01-27T04:11:16;95150.97;;;18.66;31.31
66486;BME280;53303;47.476;8.084;2023-01-27T04:14:02;95156.75;;;18.74;31.41
66486;BME280;53303;47.476;8.084;2023-01-27T04:16:27;95145.69;;;18.62;31.35
66486;BME280;53303;47.476;8.084;2023-01-27T04:18:55;95160.78;;;18.73;31.29
66486;BME280;53303;47.476;8.084;2023-01-27T04:21:21;95159.78;;;18.70;31.25
66486;BME280;53303;47.476;8.084;2023-01-27T04:23:46;95157.03;;;18.70;31.31
66486;BME280;53303;47.476;8.084;2023-01-27T04:26:14;95163.53;;;18.73;31.58
66486;BME280;53303;47.476;8.084;2023-01-27T04:28:39;95147.97;;;18.64;31.28
66486;BME280;53303;47.476;8.084;2023-01-27T04:31:05;95151.25;;;18.68;31.31
66486;BME280;53303;47.476;8.084;2023-01-27T04:33:32;95140.72;;;18.61;31.09
66486;BME280;53303;47.476;8.084;2023-01-27T04:36:00;95154.50;;;18.72;31.32
66486;BME280;53303;47.476;8.084;2023-01-27T04:38:26;95161.25;;;18.77;31.17
66486;BME280;53303;47.476;8.084;2023-01-27T04:40:51;95150.47;;;18.68;31.16
66486;BME280;53303;47.476;8.084;2023-01-27T04:43:16;95160.50;;;18.76;31.26
66486;BME280;53303;47.476;8.084;2023-01-27T04:45:42;95152.25;;;18.71;31.21
66486;BME280;53303;47.476;8.084;2023-01-27T04:48:07;95142.69;;;18.60;31.24
66486;BME280;53303;47.476;8.084;2023-01-27T04:50:35;95157.25;;;18.72;31.23
66486;BME280;53303;47.476;8.084;2023-01-27T04:53:01;95161.25;;;18.77;31.32
66486;BME280;53303;47.476;8.084;2023-01-27T04:55:26;95156.25;;;18.70;31.11
66486;BME280;53303;47.476;8.084;2023-01-27T04:57:55;95144.97;;;18.62;31.10
66486;BME280;53303;47.476;8.084;2023-01-27T05:00:23;95164.28;;;18.73;31.30
66486;BME280;53303;47.476;8.084;2023-01-27T05:02:49;95162.53;;;18.76;30.98
66486;BME280;53303;47.476;8.084;2023-01-27T05:05:17;95171.81;;;18.73;31.00
66486;BME280;53303;47.476;8.084;2023-01-27T05:07:43;95166.81;;;18.71;30.97
66486;BME280;53303;47.476;8.084;2023-01-27T05:10:14;95136.19;;;18.52;31.12
66486;BME280;53303;47.476;8.084;2023-01-27T05:12:45;95147.22;;;18.63;31.00
66486;BME280;53303;47.476;8.084;2023-01-27T05:15:11;95164.28;;;18.73;31.17
66486;BME280;53303;47.476;8.084;2023-01-27T05:17:36;95161.00;;;18.75;31.05
66486;BME280;53303;47.476;8.084;2023-01-27T05:20:02;95160.50;;;18.76;30.98
66486;BME280;53303;47.476;8.084;2023-01-27T05:22:30;95160.28;;;18.74;31.05
66486;BME280;53303;47.476;8.084;2023-01-27T05:24:55;95151.50;;;18.70;31.04
66486;BME280;53303;47.476;8.084;2023-01-27T05:27:20;95147.44;;;18.77;31.21
66486;BME280;53303;47.476;8.084;2023-01-27T05:29:46;95162.78;;;18.78;31.07
66486;BME280;53303;47.476;8.084;2023-01-27T05:32:11;95146.72;;;18.71;31.09
66486;BME280;53303;47.476;8.084;2023-01-27T05:34:37;95162.28;;;18.79;31.15
66486;BME280;53303;47.476;8.084;2023-01-27T05:37:02;95163.53;;;18.78;31.27
66486;BME280;53303;47.476;8.084;2023-01-27T05:39:28;95159.78;;;18.76;31.04
66486;BME280;53303;47.476;8.084;2023-01-27T05:41:53;95163.53;;;18.78;31.15
66486;BME280;53303;47.476;8.084;2023-01-27T05:44:22;95160.75;;;18.78;31.08
66486;BME280;53303;47.476;8.084;2023-01-27T05:46:47;95168.31;;;18.78;31.13
66486;BME280;53303;47.476;8.084;2023-01-27T05:49:17;95164.28;;;18.79;31.08
66486;BME280;53303;47.476;8.084;2023-01-27T05:51:42;95173.34;;;18.79;31.22
66486;BME280;53303;47.476;8.084;2023-01-27T05:54:10;95174.06;;;18.80;31.34
66486;BME280;53303;47.476;8.084;2023-01-27T05:56:36;95177.34;;;18.78;31.23
66486;BME280;53303;47.476;8.084;2023-01-27T05:59:01;95171.31;;;18.80;31.31
66486;BME280;53303;47.476;8.084;2023-01-27T06:01:31;95187.16;;;18.79;31.25
66486;BME280;53303;47.476;8.084;2023-01-27T06:03:57;95178.63;;;18.77;31.22
66486;BME280;53303;47.476;8.084;2023-01-27T06:06:25;95186.66;;;18.81;31.20
66486;BME280;53303;47.476;8.084;2023-01-27T06:08:50;95177.59;;;18.80;31.05
66486;BME280;53303;47.476;8.084;2023-01-27T06:11:17;95188.66;;;18.80;31.24
66486;BME280;53303;47.476;8.084;2023-01-27T06:13:44;95187.44;;;18.81;31.26
66486;BME280;53303;47.476;8.084;2023-01-27T06:16:11;95192.19;;;18.81;31.11
66486;BME280;53303;47.476;8.084;2023-01-27T06:18:38;95184.88;;;18.78;31.17
66486;BME280;53303;47.476;8.084;2023-01-27T06:21:07;95189.41;;;18.81;31.22
66486;BME280;53303;47.476;8.084;2023-01-27T06:23:35;95192.19;;;18.81;31.22
66486;BME280;53303;47.476;8.084;2023-01-27T06:26:03;95194.16;;;18.80;31.07
66486;BME280;53303;47.476;8.084;2023-01-27T06:28:29;95192.69;;;18.79;31.21
66486;BME280;53303;47.476;8.084;2023-01-27T06:30:55;95190.66;;;18.80;31.35
66486;BME280;53303;47.476;8.084;2023-01-27T06:33:21;95192.94;;;18.81;31.29
66486;BME280;53303;47.476;8.084;2023-01-27T06:35:47;95186.66;;;18.81;31.35
66486;BME280;53303;47.476;8.084;2023-01-27T06:38:12;95167.81;;;18.74;31.15
66486;BME280;53303;47.476;8.084;2023-01-27T06:40:40;95189.16;;;18.79;31.29
66486;BME280;53303;47.476;8.084;2023-01-27T06:43:10;95176.09;;;18.74;31.05
66486;BME280;53303;47.476;8.084;2023-01-27T06:45:39;95192.94;;;18.81;31.14
66486;BME280;53303;47.476;8.084;2023-01-27T06:48:05;95193.69;;;18.82;31.28
66486;BME280;53303;47.476;8.084;2023-01-27T06:50:32;95187.44;;;18.81;31.03
66486;BME280;53303;47.476;8.084;2023-01-27T06:53:02;95191.66;;;18.77;31.16
66486;BME280;53303;47.476;8.084;2023-01-27T06:55:29;95202.00;;;18.82;31.26
66486;BME280;53303;47.476;8.084;2023-01-27T06:57:54;95196.19;;;18.80;31.34
66486;BME280;53303;47.476;8.084;2023-01-27T07:00:20;95197.25;;;18.82;31.17
66486;BME280;53303;47.476;8.084;2023-01-27T07:02:46;95191.72;;;18.82;31.27
66486;BME280;53303;47.476;8.084;2023-01-27T07:05:11;95185.88;;;18.75;31.21
66486;BME280;53303;47.476;8.084;2023-01-27T07:07:39;95204.75;;;18.82;31.26
66486;BME280;53303;47.476;8.084;2023-01-27T07:10:06;95209.53;;;18.81;31.21
66486;BME280;53303;47.476;8.084;2023-01-27T07:12:34;95201.47;;;18.78;31.35
66486;BME280;53303;47.476;8.084;2023-01-27T07:15:06;95209.03;;;18.77;31.09
66486;BME280;53303;47.476;8.084;2023-01-27T07:17:35;95219.34;;;18.82;31.19
66486;BME280;53303;47.476;8.084;2023-01-27T07:20:01;95217.34;;;18.83;31.26
66486;BME280;53303;47.476;8.084;2023-01-27T07:22:30;95222.88;;;18.83;31.08
66486;BME280;53303;47.476;8.084;2023-01-27T07:24:55;95236.69;;;18.83;31.32
66486;BME280;53303;47.476;8.084;2023-01-27T07:27:22;95231.91;;;18.83;31.05
66486;BME280;53303;47.476;8.084;2023-01-27T07:29:47;95216.03;;;18.78;31.39
66486;BME280;53303;47.476;8.084;2023-01-27T07:32:12;95227.13;;;18.84;31.15
66486;BME280;53303;47.476;8.084;2023-01-27T07:34:38;95229.88;;;18.84;31.21
66486;BME280;53303;47.476;8.084;2023-01-27T07:37:03;95238.44;;;18.86;31.14
66486;BME280;53303;47.476;8.084;2023-01-27T07:39:30;95230.63;;;18.79;31.09
66486;BME280;53303;47.476;8.084;2023-01-27T07:41:55;95243.97;;;18.86;31.01
66486;BME280;53303;47.476;8.084;2023-01-27T07:44:23;95244.22;;;18.88;31.08
66486;BME280;53303;47.476;8.084;2023-01-27T07:46:48;95237.94;;;18.88;31.20
66486;BME280;53303;47.476;8.084;2023-01-27T07:49:14;95247.72;;;18.89;31.11
66486;BME280;53303;47.476;8.084;2023-01-27T07:51:39;95240.19;;;18.83;31.00
66486;BME280;53303;47.476;8.084;2023-01-27T07:54:05;95245.72;;;18.89;30.92
66486;BME280;53303;47.476;8.084;2023-01-27T07:56:30;95242.72;;;18.87;31.07
66486;BME280;53303;47.476;8.084;2023-01-27T07:58:56;95252.75;;;18.90;31.18
66486;BME280;53303;47.476;8.084;2023-01-27T08:01:22;95254.28;;;18.91;31.16
66486;BME280;53303;47.476;8.084;2023-01-27T08:03:48;95260.56;;;18.92;31.01
66486;BME280;53303;47.476;8.084;2023-01-27T08:06:13;95253.50;;;18.91;31.05
66486;BME280;53303;47.476;8.084;2023-01-27T08:08:39;95255.03;;;18.92;31.10
66486;BME280;53303;47.476;8.084;2023-01-27T08:11:06;95259.81;;;18.91;31.10
66486;BME280;53303;47.476;8.084;2023-01-27T08:13:33;95239.69;;;18.85;31.01
66486;BME280;53303;47.476;8.084;2023-01-27T08:16:00;95258.03;;;18.94;31.07
66486;BME280;53303;47.476;8.084;2023-01-27T08:18:27;95260.56;;;18.92;31.02
66486;BME280;53303;47.476;8.084;2023-01-27T08:20:54;95267.84;;;18.95;31.13
66486;BME280;53303;47.476;8.084;2023-01-27T08:23:22;95263.56;;;18.94;31.07
66486;BME280;53303;47.476;8.084;2023-01-27T08:25:49;95254.78;;;18.90;30.96
66486;BME280;53303;47.476;8.084;2023-01-27T08:28:16;95263.06;;;18.95;30.97
66486;BME280;53303;47.476;8.084;2023-01-27T08:30:41;95262.31;;;18.95;31.00
66486;BME280;53303;47.476;8.084;2023-01-27T08:33:09;95268.09;;;18.97;31.18
66486;BME280;53303;47.476;8.084;2023-01-27T08:35:38;95264.56;;;18.96;30.96
66486;BME280;53303;47.476;8.084;2023-01-27T08:38:07;95274.38;;;18.97;31.08
66486;BME280;53303;47.476;8.084;2023-01-27T08:40:32;95270.88;;;18.97;30.94
66486;BME280;53303;47.476;8.084;2023-01-27T08:42:58;95271.59;;;18.97;30.98
66486;BME280;53303;47.476;8.084;2023-01-27T08:45:26;95268.84;;;18.97;30.92
66486;BME280;53303;47.476;8.084;2023-01-27T08:47:51;95269.59;;;18.98;30.98
66486;BME280;53303;47.476;8.084;2023-01-27T08:50:19;95278.66;;;18.98;30.86
66486;BME280;53303;47.476;8.084;2023-01-27T08:52:45;95277.88;;;18.98;31.14
66486;BME280;53303;47.476;8.084;2023-01-27T08:55:10;95276.63;;;18.99;30.98
66486;BME280;53303;47.476;8.084;2023-01-27T08:57:36;95272.09;;;18.96;30.90
66486;BME280;53303;47.476;8.084;2023-01-27T09:00:03;95289.19;;;19.00;30.89
66486;BME280;53303;47.476;8.084;2023-01-27T09:02:29;95295.50;;;19.00;31.00
66486;BME280;53303;47.476;8.084;2023-01-27T09:04:54;95286.44;;;19.00;31.04
66486;BME280;53303;47.476;8.084;2023-01-27T09:07:20;95283.66;;;19.00;30.89
66486;BME280;53303;47.476;8.084;2023-01-27T09:09:46;95292.72;;;19.00;31.11
66486;BME280;53303;47.476;8.084;2023-01-27T09:12:12;95294.22;;;19.01;31.06
66486;BME280;53303;47.476;8.084;2023-01-27T09:14:38;95291.47;;;19.01;30.98
66486;BME280;53303;47.476;8.084;2023-01-27T09:17:04;95295.75;;;19.02;30.92
66486;BME280;53303;47.476;8.084;2023-01-27T09:19:30;95285.94;;;19.01;30.93
66486;BME280;53303;47.476;8.084;2023-01-27T09:21:55;95276.91;;;18.95;30.80
66486;BME280;53303;47.476;8.084;2023-01-27T09:24:21;95292.22;;;19.02;30.86
66486;BME280;53303;47.476;8.084;2023-01-27T09:26:46;95292.97;;;19.02;30.81
66486;BME280;53303;47.476;8.084;2023-01-27T09:29:14;95291.47;;;19.01;30.95
66486;BME280;53303;47.476;8.084;2023-01-27T09:31:41;95297.22;;;19.03;30.75
66486;BME280;53303;47.476;8.084;2023-01-27T09:34:07;95296.50;;;19.03;30.84
66486;BME280;53303;47.476;8.084;2023-01-27T09:36:40;95300.00;;;19.03;30.86
66486;BME280;53303;47.476;8.084;2023-01-27T09:39:08;95298.50;;;19.02;30.90
66486;BME280;53303;47.476;8.084;2023-01-27T09:46:59;95303.53;;;19.04;30.84
66486;BME280;53303;47.476;8.084;2023-01-27T10:06:01;95300.78;;;19.04;30.81
66486;BME280;53303;47.476;8.084;2023-01-27T10:27:20;95290.47;;;19.05;30.97
66486;BME280;53303;47.476;8.084;2023-01-27T10:29:52;95296.00;;;19.05;30.81
66486;BME280;53303;47.476;8.084;2023-01-27T10:32:26;95295.50;;;19.06;30.78
66486;BME280;53303;47.476;8.084;2023-01-27T10:35:11;95298.25;;;19.06;30.76
66486;BME280;53303;47.476;8.084;2023-01-27T10:49:02;95277.88;;;19.03;30.78
66486;BME280;53303;47.476;8.084;2023-01-27T10:51:36;95291.97;;;19.06;30.80
66486;BME280;53303;47.476;8.084;2023-01-27T10:54:25;95284.69;;;19.02;30.79
66486;BME280;53303;47.476;8.084;2023-01-27T10:56:56;95278.91;;;19.06;30.61
66486;BME280;53303;47.476;8.084;2023-01-27T11:06:59;95270.84;;;19.02;30.85
66486;BME280;53303;47.476;8.084;2023-01-27T11:09:31;95278.41;;;19.08;30.77
66486;BME280;53303;47.476;8.084;2023-01-27T11:12:09;95253.50;;;18.91;30.89
66486;BME280;53303;47.476;8.084;2023-01-27T11:14:49;95282.41;;;19.07;30.91
66486;BME280;53303;47.476;8.084;2023-01-27T11:17:31;95287.44;;;19.08;30.90
66486;BME280;53303;47.476;8.084;2023-01-27T11:20:28;95271.59;;;19.03;30.83
66486;BME280;53303;47.476;8.084;2023-01-27T11:23:18;95273.13;;;19.04;30.84
66486;BME280;53303;47.476;8.084;2023-01-27T11:28:27;95282.16;;;19.05;30.84
66486;BME280;53303;47.476;8.084;2023-01-27T11:36:19;95283.16;;;19.01;30.82
66486;BME280;53303;47.476;8.084;2023-01-27T11:38:45;95288.97;;;19.09;30.94
66486;BME280;53303;47.476;8.084;2023-01-27T11:41:10;95292.47;;;19.10;30.77
66486;BME280;53303;47.476;8.084;2023-01-27T11:43:36;95282.66;;;19.09;30.91
66486;BME280;53303;47.476;8.084;2023-01-27T11:46:05;95288.94;;;19.03;30.75
66486;BME280;53303;47.476;8.084;2023-01-27T11:48:37;95283.44;;;19.09;31.11
66486;BME280;53303;47.476;8.084;2023-01-27T11:51:13;95292.47;;;19.10;31.00
66486;BME280;53303;47.476;8.084;2023-01-27T11:53:42;95277.38;;;19.11;30.89
66486;BME280;53303;47.476;8.084;2023-01-27T11:56:16;95281.41;;;19.10;30.77
66486;BME280;53303;47.476;8.084;2023-01-27T11:59:05;95269.59;;;19.09;30.94
66486;BME280;53303;47.476;8.084;2023-01-27T12:04:11;95270.84;;;19.08;30.90
66486;BME280;53303;47.476;8.084;2023-01-27T12:07:01;95268.59;;;19.07;30.97
66486;BME280;53303;47.476;8.084;2023-01-27T12:09:38;95261.81;;;19.08;30.83
66486;BME280;53303;47.476;8.084;2023-01-27T12:14:50;95273.59;;;19.08;30.80
66486;BME280;53303;47.476;8.084;2023-01-27T12:17:28;95266.84;;;19.09;30.72
66486;BME280;53303;47.476;8.084;2023-01-27T12:19:56;95270.34;;;19.10;30.81
66486;BME280;53303;47.476;8.084;2023-01-27T12:22:28;95257.25;;;19.10;30.65
66486;BME280;53303;47.476;8.084;2023-01-27T12:24:58;95257.25;;;19.10;30.75
66486;BME280;53303;47.476;8.084;2023-01-27T12:27:29;95239.69;;;19.02;30.81
66486;BME280;53303;47.476;8.084;2023-01-27T12:30:05;95246.69;;;19.09;30.82
66486;BME280;53303;47.476;8.084;2023-01-27T12:32:43;95249.97;;;19.07;30.86
66486;BME280;53303;47.476;8.084;2023-01-27T12:35:35;95248.97;;;19.05;30.71
66486;BME280;53303;47.476;8.084;2023-01-27T12:38:21;95242.19;;;19.06;30.80
66486;BME280;53303;47.476;8.084;2023-01-27T12:40:56;95252.22;;;19.09;30.76
66486;BME280;53303;47.476;8.084;2023-01-27T12:43:22;95252.22;;;19.09;30.86
66486;BME280;53303;47.476;8.084;2023-01-27T12:48:46;95252.22;;;19.09;30.82
66486;BME280;53303;47.476;8.084;2023-01-27T12:51:17;95268.81;;;19.09;31.08
66486;BME280;53303;47.476;8.084;2023-01-27T12:53:43;95257.25;;;19.10;30.71
66486;BME280;53303;47.476;8.084;2023-01-27T12:56:17;95247.19;;;19.07;30.83
66486;BME280;53303;47.476;8.084;2023-01-27T12:58:46;95261.53;;;19.11;30.88
66486;BME280;53303;47.476;8.084;2023-01-27T13:01:29;95255.00;;;19.09;30.73
66486;BME280;53303;47.476;8.084;2023-01-27T13:04:04;95255.25;;;19.11;30.68
66486;BME280;53303;47.476;8.084;2023-01-27T13:06:54;95260.78;;;19.05;30.68
66486;BME280;53303;47.476;8.084;2023-01-27T13:09:33;95263.28;;;19.09;30.79
66486;BME280;53303;47.476;8.084;2023-01-27T13:12:03;95262.06;;;19.10;30.73
66486;BME280;53303;47.476;8.084;2023-01-27T13:14:40;95258.00;;;19.11;30.83
66486;BME280;53303;47.476;8.084;2023-01-27T13:20:03;95263.28;;;19.09;30.71
66486;BME280;53303;47.476;8.084;2023-01-27T13:22:39;95271.59;;;19.09;30.77
66486;BME280;53303;47.476;8.084;2023-01-27T13:25:14;95270.34;;;19.10;30.69
66486;BME280;53303;47.476;8.084;2023-01-27T13:27:40;95264.81;;;19.04;30.59
66486;BME280;53303;47.476;8.084;2023-01-27T13:32:42;95271.84;;;19.11;30.85
66486;BME280;53303;47.476;8.084;2023-01-27T13:35:40;95278.41;;;19.08;30.82
66486;BME280;53303;47.476;8.084;2023-01-27T13:38:23;95280.91;;;19.06;30.74
66486;BME280;53303;47.476;8.084;2023-01-27T13:40:53;95288.97;;;19.09;30.75
66486;BME280;53303;47.476;8.084;2023-01-27T13:43:49;95282.16;;;19.05;30.66
66486;BME280;53303;47.476;8.084;2023-01-27T13:46:23;95281.41;;;19.10;30.86
66486;BME280;53303;47.476;8.084;2023-01-27T13:48:58;95267.34;;;19.08;30.82
66486;BME280;53303;47.476;8.084;2023-01-27T13:51:28;95276.63;;;19.10;30.75
66486;BME280;53303;47.476;8.084;2023-01-27T13:54:00;95277.38;;;19.11;30.85
66486;BME280;53303;47.476;8.084;2023-01-27T13:59:31;95283.41;;;19.03;30.79
66486;BME280;53303;47.476;8.084;2023-01-27T14:07:45;95285.44;;;19.03;30.66
66486;BME280;53303;47.476;8.084;2023-01-27T14:10:23;95288.69;;;19.07;30.70
66486;BME280;53303;47.476;8.084;2023-01-27T14:15:46;95283.94;;;19.08;30.75
66486;BME280;53303;47.476;8.084;2023-01-27T14:18:30;95291.19;;;19.05;30.53
66486;BME280;53303;47.476;8.084;2023-01-27T14:23:45;95289.47;;;19.08;30.60
66486;BME280;53303;47.476;8.084;2023-01-27T14:45:53;95307.31;;;18.95;30.81
66486;BME280;53303;47.476;8.084;2023-01-27T14:48:38;95296.00;;;18.93;30.81
66486;BME280;53303;47.476;8.084;2023-01-27T15:01:55;95310.81;;;19.01;30.81
66486;BME280;53303;47.476;8.084;2023-01-27T15:07:21;95321.38;;;19.03;30.88
66486;BME280;53303;47.476;8.084;2023-01-27T15:21:44;95327.16;;;18.99;30.93
66486;BME280;53303;47.476;8.084;2023-01-27T15:27:08;95344.78;;;19.08;30.77
66486;BME280;53303;47.476;8.084;2023-01-27T15:29:43;95350.31;;;19.08;30.72
66486;BME280;53303;47.476;8.084;2023-01-27T15:34:37;95344.50;;;19.00;30.73
66486;BME280;53303;47.476;8.084;2023-01-27T15:37:25;95358.34;;;19.06;30.77
66486;BME280;53303;47.476;8.084;2023-01-27T15:42:50;95358.59;;;19.08;30.67
66486;BME280;53303;47.476;8.084;2023-01-27T15:45:43;95357.31;;;19.09;30.75
66486;BME280;53303;47.476;8.084;2023-01-27T15:48:12;95363.63;;;19.09;30.85
66486;BME280;53303;47.476;8.084;2023-01-27T15:50:47;95360.09;;;19.09;30.84